createdAt,value
2019-02-07T00:00:30.290Z,1.00
2019-02-07T00:02:59.068Z,1.00
2019-02-07T00:05:28.000Z,1.00
2019-02-07T00:07:56.817Z,1.00
2019-02-07T00:10:25.696Z,1.00
2019-02-07T00:12:55.018Z,1.00
2019-02-07T00:15:23.861Z,1.00
2019-02-07T00:17:52.946Z,1.00
2019-02-07T00:20:21.835Z,1.00
2019-02-07T00:22:50.733Z,1.00
2019-02-07T00:25:19.557Z,1.00
2019-02-07T00:27:48.401Z,1.00
2019-02-07T00:30:19.665Z,1.00
2019-02-07T00:32:48.678Z,1.00
2019-02-07T00:35:17.835Z,1.00
2019-02-07T00:37:46.841Z,1.00
2019-02-07T00:40:17.771Z,1.00
2019-02-07T00:42:47.106Z,1.00
2019-02-07T00:45:17.440Z,1.00
2019-02-07T00:47:46.222Z,1.00
2019-02-07T00:50:16.600Z,1.00
2019-02-07T00:52:45.698Z,1.00
2019-02-07T00:55:15.831Z,1.00
2019-02-07T00:57:45.044Z,1.00
2019-02-07T01:00:20.071Z,1.00
2019-02-07T01:02:48.972Z,1.00
2019-02-07T01:05:18.138Z,1.00
2019-02-07T01:07:47.029Z,1.00
2019-02-07T01:10:19.287Z,1.00
2019-02-07T01:12:49.628Z,1.00
2019-02-07T01:15:18.862Z,1.00
2019-02-07T01:17:47.623Z,1.00
2019-02-07T01:20:17.304Z,1.00
2019-02-07T01:22:46.412Z,1.00
2019-02-07T01:25:22.806Z,1.00
2019-02-07T01:36:34.846Z,1.00
2019-02-07T02:19:33.701Z,1.00
2019-02-07T02:34:11.016Z,1.00
2019-02-07T02:39:50.794Z,1.00
2019-02-07T03:03:45.959Z,1.00
2019-02-07T03:45:35.645Z,1.00
2019-02-07T03:51:16.902Z,1.00
2019-02-07T04:11:55.782Z,1.00
2019-02-07T04:29:39.014Z,1.00
2019-02-07T04:32:21.602Z,1.00
2019-02-07T04:59:32.312Z,1.00
2019-02-07T05:23:21.523Z,1.00
2019-02-07T05:26:21.500Z,1.00
2019-02-07T05:32:36.206Z,1.00
2019-02-07T06:23:39.253Z,1.00
2019-02-07T06:50:14.018Z,1.00
2019-02-07T07:43:58.622Z,1.00
2019-02-07T07:52:57.297Z,1.00
2019-02-07T07:55:39.637Z,1.00
2019-02-07T08:04:20.474Z,1.00
2019-02-07T08:07:20.663Z,1.00
2019-02-07T11:24:06.404Z,99.90
2019-02-07T12:02:54.855Z,70.20
2019-02-07T12:05:37.897Z,81.70
2019-02-07T12:26:38.037Z,58.70
2019-02-07T13:23:08.206Z,50.70
2019-02-07T13:28:54.748Z,74.00
2019-02-07T13:31:25.239Z,75.30
2019-02-07T13:33:56.001Z,65.80
2019-02-07T13:36:43.944Z,62.40
2019-02-07T13:39:32.537Z,51.90
2019-02-07T13:42:19.616Z,58.70
2019-02-07T13:44:59.017Z,77.80
2019-02-07T13:47:32.400Z,83.10
2019-02-07T13:50:19.421Z,92.40
2019-02-07T13:52:49.914Z,91.70
2019-02-07T13:55:37.376Z,99.90
2019-02-07T13:58:07.686Z,99.90
2019-02-07T14:00:38.107Z,99.90
2019-02-07T14:03:25.218Z,99.90
2019-02-07T14:05:59.228Z,99.90
2019-02-07T14:08:38.417Z,99.90
2019-02-07T14:11:04.919Z,99.90
2019-02-07T14:13:51.294Z,99.90
2019-02-07T14:16:27.999Z,99.90
2019-02-07T14:19:14.632Z,1.00
2019-02-07T14:22:01.633Z,99.90
2019-02-07T14:24:48.580Z,1.00
2019-02-07T14:27:22.428Z,1.00
2019-02-07T14:30:09.360Z,99.90
2019-02-07T14:32:49.062Z,1.00
2019-02-07T14:35:31.567Z,1.00
2019-02-07T14:38:07.728Z,1.00
2019-02-07T14:40:46.882Z,30.70
2019-02-07T14:43:20.314Z,99.90
2019-02-07T14:46:07.281Z,1.00
2019-02-07T14:48:36.039Z,99.90
2019-02-07T14:51:05.048Z,1.00
2019-02-07T14:53:33.911Z,99.90
2019-02-07T14:56:02.699Z,99.90
2019-02-07T14:58:31.559Z,99.90
2019-02-07T15:01:00.450Z,99.90
2019-02-07T15:03:29.608Z,1.00
2019-02-07T15:05:58.452Z,1.00
2019-02-07T15:08:27.320Z,1.00
2019-02-07T15:10:56.400Z,99.90
2019-02-07T15:13:25.256Z,99.90
2019-02-07T15:15:54.109Z,1.00
2019-02-07T15:18:23.250Z,1.00
2019-02-07T15:20:52.000Z,1.00
2019-02-07T15:23:20.815Z,1.00
2019-02-07T15:25:49.865Z,1.00
2019-02-07T15:28:18.741Z,1.00
2019-02-07T15:30:47.961Z,99.90
2019-02-07T15:33:16.738Z,99.90
2019-02-07T15:35:48.796Z,99.90
2019-02-07T15:38:17.600Z,1.00
2019-02-07T15:40:46.718Z,99.90
2019-02-07T15:43:16.041Z,1.00
2019-02-07T15:45:44.860Z,99.90
2019-02-07T15:48:13.658Z,99.90
2019-02-07T15:50:42.558Z,21.80
2019-02-07T15:53:11.729Z,1.00
2019-02-07T15:55:40.613Z,1.00
2019-02-07T15:58:09.498Z,99.90
2019-02-07T16:00:49.037Z,99.90
2019-02-07T16:03:32.042Z,99.90
2019-02-07T16:06:00.902Z,99.90
2019-02-07T16:08:29.658Z,99.90
2019-02-07T16:10:58.394Z,99.90
2019-02-07T16:13:27.142Z,99.90
2019-02-07T16:15:55.992Z,1.00
2019-02-07T16:18:25.007Z,1.00
2019-02-07T16:20:53.891Z,1.00
2019-02-07T16:23:22.681Z,99.90
2019-02-07T16:25:51.501Z,1.00
2019-02-07T16:28:20.411Z,1.00
2019-02-07T16:30:49.464Z,1.00
2019-02-07T16:33:18.204Z,1.00
2019-02-07T16:35:46.941Z,1.00
2019-02-07T16:38:15.696Z,1.00
2019-02-07T16:40:44.551Z,1.00
2019-02-07T16:43:13.392Z,1.00
2019-02-07T16:45:42.497Z,1.00
2019-02-07T16:48:11.317Z,1.00
2019-02-07T16:50:40.090Z,1.00
2019-02-07T16:53:08.961Z,1.00
2019-02-07T16:55:37.917Z,1.00
2019-02-07T16:58:06.822Z,1.00
2019-02-07T17:00:37.476Z,1.00
2019-02-07T17:03:07.480Z,1.00
2019-02-07T17:05:37.984Z,1.00
2019-02-07T17:08:06.967Z,1.00
2019-02-07T17:10:38.156Z,1.00
2019-02-07T17:13:10.052Z,1.00
2019-02-07T17:15:39.171Z,1.00
2019-02-07T17:18:08.140Z,1.00
2019-02-07T17:20:37.410Z,1.00
2019-02-07T17:23:07.207Z,1.00
2019-02-07T17:25:36.020Z,1.00
2019-02-07T17:28:05.167Z,1.00
2019-02-07T17:30:34.692Z,1.00
2019-02-07T17:33:03.551Z,1.00
2019-02-07T17:35:33.091Z,1.00
2019-02-07T17:38:01.896Z,1.00
2019-02-07T17:40:30.775Z,1.00
2019-02-07T17:42:59.606Z,1.00
2019-02-07T17:45:32.268Z,1.00
2019-02-07T17:48:01.279Z,1.00
2019-02-07T17:50:35.121Z,1.00
2019-02-07T17:53:12.381Z,1.00
2019-02-07T17:55:41.428Z,1.00
2019-02-07T17:58:11.291Z,1.00
2019-02-07T18:01:02.500Z,1.00
2019-02-07T18:03:31.651Z,1.00
2019-02-07T18:06:00.549Z,1.00
2019-02-07T18:08:29.929Z,1.00
2019-02-07T18:10:58.696Z,1.00
2019-02-07T18:13:27.798Z,1.00
2019-02-07T18:15:57.492Z,1.00
2019-02-07T18:18:26.661Z,1.00
2019-02-07T18:20:55.569Z,1.00
2019-02-07T18:23:24.313Z,1.00
2019-02-07T18:25:53.057Z,1.00
2019-02-07T18:28:21.906Z,2.80
2019-02-07T18:30:50.753Z,1.00
2019-02-07T18:33:19.579Z,1.70
2019-02-07T18:35:48.357Z,8.00
2019-02-07T18:38:17.099Z,5.90
2019-02-07T18:40:46.159Z,7.90
2019-02-07T18:43:15.005Z,8.90
2019-02-07T18:45:43.805Z,9.70
2019-02-07T18:48:12.634Z,17.70
2019-02-07T18:50:41.688Z,18.90
2019-02-07T18:53:10.465Z,18.00
2019-02-07T18:55:39.270Z,21.10
2019-02-07T18:58:08.149Z,24.70
2019-02-07T19:00:38.363Z,28.40
2019-02-07T19:03:08.464Z,27.70
2019-02-07T19:05:37.317Z,26.50
2019-02-07T19:08:06.811Z,29.90
2019-02-07T19:10:35.836Z,34.80
2019-02-07T19:13:05.317Z,32.00
2019-02-07T19:15:39.818Z,31.40
2019-02-07T19:18:08.733Z,36.10
2019-02-07T19:20:37.817Z,40.80
2019-02-07T19:23:07.271Z,46.80
2019-02-07T19:25:36.655Z,52.20
2019-02-07T20:13:28.248Z,96.10
2019-02-07T20:31:22.373Z,99.90
2019-02-07T20:34:10.564Z,99.90
2019-02-07T20:53:47.573Z,99.90
2019-02-07T22:13:12.820Z,99.90
2019-02-07T22:15:54.230Z,99.90
2019-02-07T22:54:11.191Z,99.90
2019-02-07T23:19:39.850Z,99.90
